Time;durP1;ratioP1;P1;durP2;ratioP2;P2;SDS_P1;SDS_P2;PMS_P1;PMS_P2;Temp;Humidity;BMP_temperature;BMP_pressure;BME280_temperature;BME280_humidity;BME280_pressure;Samples;Min_cycle;Max_cycle;Signal;HPM_P1;HPM_P2
2022/03/25 00:01:53;;;;;;;134.82;62.83;;;4.70;99.90;;;;;;5053343;28;20447;-62
2022/03/25 00:04:19;;;;;;;135.63;66.38;;;4.80;99.90;;;;;;5053345;28;20049;-62
2022/03/25 00:06:45;;;;;;;133.43;64.13;;;4.60;99.90;;;;;;5053233;28;20048;-62
2022/03/25 00:09:11;;;;;;;142.30;65.32;;;;;;;;;;5053185;28;20102;-62
2022/03/25 00:11:37;;;;;;;146.05;66.47;;;4.70;99.90;;;;;;5053108;28;20128;-62
2022/03/25 00:14:03;;;;;;;134.65;65.63;;;;;;;;;;5053105;28;20449;-63
2022/03/25 00:16:29;;;;;;;;;;;4.80;99.90;;;;;;5053564;28;20132;-62
2022/03/25 00:18:54;;;;;;;142.18;64.95;;;4.70;99.90;;;;;;5053328;28;19979;-61
2022/03/25 00:21:21;;;;;;;152.13;67.85;;;4.90;99.90;;;;;;5052973;28;20045;-61
2022/03/25 00:23:47;;;;;;;138.77;67.05;;;;;;;;;;5051633;28;20044;-62
2022/03/25 00:26:12;;;;;;;140.05;64.20;;;4.80;99.90;;;;;;5050913;28;20397;-64
2022/03/25 00:28:39;;;;;;;126.57;61.10;;;4.80;99.90;;;;;;5052913;28;20053;-62
2022/03/25 00:31:08;;;;;;;123.25;58.45;;;4.50;99.90;;;;;;5052770;28;20060;-61
2022/03/25 00:33:35;;;;;;;122.28;60.88;;;;;;;;;;5052713;28;20041;-62
2022/03/25 00:36:01;;;;;;;121.65;60.03;;;;;;;;;;5052766;28;20052;-62
2022/03/25 00:38:28;;;;;;;127.15;59.65;;;4.70;99.90;;;;;;5052711;28;20468;-61
2022/03/25 00:40:54;;;;;;;122.82;58.97;;;4.50;99.90;;;;;;5052659;28;20060;-62
2022/03/25 00:43:20;;;;;;;118.97;58.45;;;4.60;99.90;;;;;;5052673;28;20080;-62
2022/03/25 00:45:46;;;;;;;118.47;56.97;;;4.40;99.90;;;;;;5052247;28;20076;-62
2022/03/25 00:48:13;;;;;;;;;;;4.60;99.90;;;;;;5052594;28;20057;-61
2022/03/25 00:50:40;;;;;;;115.00;55.85;;;;;;;;;;5052498;28;19979;-62
2022/03/25 00:53:06;;;;;;;108.15;54.30;;;;;;;;;;5052467;28;20055;-62
2022/03/25 00:55:32;;;;;;;110.57;55.88;;;4.50;99.90;;;;;;5052544;28;20048;-62
2022/03/25 00:57:58;;;;;;;;;;;;;;;;;;5052861;28;20071;-64
2022/03/25 01:00:25;;;;;;;103.35;53.45;;;;;;;;;;5052395;28;20023;-62
2022/03/25 01:02:51;;;;;;;;;;;4.40;99.90;;;;;;5052849;28;20047;-62
2022/03/25 01:05:17;;;;;;;104.80;50.50;;;;;;;;;;5052398;28;19983;-61
2022/03/25 01:07:44;;;;;;;107.15;52.40;;;;;;;;;;5052360;28;20053;-62
2022/03/25 01:10:10;;;;;;;;;;;;;;;;;;5052767;28;20128;-62
2022/03/25 01:12:36;;;;;;;111.43;53.30;;;;;;;;;;5052286;28;20063;-62
2022/03/25 01:15:03;;;;;;;105.75;50.97;;;4.40;99.90;;;;;;5052391;28;20048;-62
2022/03/25 01:17:29;;;;;;;107.63;54.05;;;;;;;;;;5052256;28;20060;-62
2022/03/25 01:19:55;;;;;;;111.68;53.55;;;;;;;;;;5051968;28;20058;-62
2022/03/25 01:22:21;;;;;;;105.10;52.28;;;;;;;;;;5052317;28;20049;-62
2022/03/25 01:24:47;;;;;;;107.00;51.40;;;4.50;99.90;;;;;;5050966;28;20397;-62
2022/03/25 01:27:13;;;;;;;104.28;51.70;;;4.50;99.90;;;;;;5052141;28;20048;-62
2022/03/25 01:29:39;;;;;;;105.97;51.45;;;;;;;;;;5052186;28;20345;-61
2022/03/25 01:32:08;;;;;;;97.97;48.08;;;4.30;99.90;;;;;;5034481;28;20103;-62
2022/03/25 01:34:34;;;;;;;110.65;51.05;;;4.20;99.90;;;;;;5050965;28;20088;-62
2022/03/25 01:37:01;;;;;;;;;;;4.30;99.90;;;;;;5053180;28;20080;-62
2022/03/25 01:39:27;;;;;;;98.85;48.08;;;;;;;;;;5056017;28;20386;-61
2022/03/25 01:41:53;;;;;;;96.45;47.08;;;4.10;99.90;;;;;;5056101;28;20101;-61
2022/03/25 01:44:26;;;;;;;108.47;50.92;;;;;;;;;;5055955;28;20125;-62
2022/03/25 01:46:53;;;;;;;100.88;50.60;;;;;;;;;;5055499;28;20053;-62
2022/03/25 01:49:20;;;;;;;97.57;48.33;;;;;;;;;;5055814;28;20068;-62
2022/03/25 01:51:47;;;;;;;;;;;3.90;99.90;;;;;;5056281;28;20388;-61
2022/03/25 01:54:22;;;;;;;99.00;47.63;;;;;;;;;;5055761;28;20311;-62
2022/03/25 01:56:51;;;;;;;99.72;48.15;;;;;;;;;;5055678;28;20052;-62
2022/03/25 01:59:17;;;;;;;99.28;48.70;;;4.10;99.90;;;;;;5055634;28;20045;-61
2022/03/25 02:01:43;;;;;;;96.47;48.33;;;;;;;;;;5055658;28;20143;-62
2022/03/25 02:04:09;;;;;;;101.32;48.15;;;;;;;;;;5055590;28;20052;-62
2022/03/25 02:06:35;;;;;;;99.90;49.42;;;;;;;;;;5055507;28;20059;-62
2022/03/25 02:09:01;;;;;;;99.65;48.22;;;4.30;99.90;;;;;;5055461;28;20534;-61
2022/03/25 02:11:28;;;;;;;101.07;48.70;;;;;;;;;;5055374;28;20045;-62
2022/03/25 02:13:54;;;;;;;108.82;51.65;;;;;;;;;;5055273;28;20045;-61
2022/03/25 02:16:32;;;;;;;104.28;49.13;;;4.10;99.90;;;;;;5054343;28;20079;-62
2022/03/25 02:18:58;;;;;;;101.35;49.40;;;;;;;;;;5055366;28;20045;-61
2022/03/25 02:21:29;;;;;;;107.82;50.47;;;3.90;99.90;;;;;;5055281;28;20051;-63
2022/03/25 02:23:55;;;;;;;109.00;51.90;;;;;;;;;;5055296;28;20114;-62
2022/03/25 02:26:22;;;;;;;108.57;52.10;;;3.80;99.90;;;;;;5055099;28;20102;-62
2022/03/25 02:28:48;;;;;;;66.38;36.38;;;;;;;;;;5054066;28;20123;-62
2022/03/25 02:31:17;;;;;;;86.05;42.67;;;;;;;;;;5054049;28;20052;-62
2022/03/25 02:33:43;;;;;;;87.88;44.72;;;3.50;99.90;;;;;;5054938;28;20041;-62
2022/03/25 02:36:09;;;;;;;85.88;42.90;;;3.20;99.90;;;;;;5053765;28;20044;-61
2022/03/25 02:38:36;;;;;;;77.95;40.58;;;;;;;;;;5054923;28;20135;-62
2022/03/25 02:41:02;;;;;;;96.80;46.00;;;;;;;;;;5054932;28;20048;-62
2022/03/25 02:43:28;;;;;;;83.78;42.00;;;3.50;99.90;;;;;;5054840;28;20087;-61
2022/03/25 02:45:54;;;;;;;91.00;45.72;;;;;;;;;;5054772;28;20081;-61
2022/03/25 02:48:20;;;;;;;88.60;42.90;;;;;;;;;;5053621;28;20489;-62
2022/03/25 02:50:46;;;;;;;92.15;43.15;;;3.20;99.90;;;;;;5054429;28;20088;-61
2022/03/25 02:53:15;;;;;;;115.10;50.33;;;3.50;99.90;;;;;;5054720;28;20080;-62
2022/03/25 02:55:42;;;;;;;120.05;51.90;;;;;;;;;;5054612;28;20136;-62
2022/03/25 02:58:09;;;;;;;109.53;51.67;;;;;;;;;;5054548;28;20083;-62
2022/03/25 03:00:35;;;;;;;125.70;54.25;;;;;;;;;;5054564;28;20140;-62
2022/03/25 03:03:01;;;;;;;120.78;52.75;;;3.30;99.90;;;;;;5054222;28;20504;-62
2022/03/25 03:05:28;;;;;;;132.93;54.70;;;;;;;;;;5054410;28;20052;-61
2022/03/25 03:07:55;;;;;;;116.57;53.42;;;;;;;;;;5053183;28;20056;-62
2022/03/25 03:10:21;;;;;;;131.23;54.88;;;3.40;99.90;;;;;;5054387;28;20072;-62
2022/03/25 03:12:47;;;;;;;121.65;53.70;;;;;;;;;;5053104;28;20041;-62
2022/03/25 03:15:17;;;;;;;117.53;50.80;;;3.10;99.90;;;;;;5054295;28;20080;-62
2022/03/25 03:17:45;;;;;;;107.40;50.83;;;3.20;99.90;;;;;;5054231;28;20124;-61
2022/03/25 03:20:11;;;;;;;105.43;49.80;;;;;;;;;;5054143;28;20048;-62
2022/03/25 03:22:38;;;;;;;104.90;50.13;;;;;;;;;;5054144;28;20045;-61
2022/03/25 03:25:04;;;;;;;113.55;51.03;;;3.30;99.90;;;;;;5054038;28;20127;-62
2022/03/25 03:27:30;;;;;;;109.13;49.08;;;;;;;;;;5053986;28;20052;-63
2022/03/25 03:29:57;;;;;;;108.20;48.40;;;;;;;;;;5052806;28;20049;-61
2022/03/25 03:32:23;;;;;;;;;;;3.30;99.90;;;;;;5054368;28;20084;-62
2022/03/25 03:34:49;;;;;;;102.85;46.83;;;;;;;;;;5053995;28;20375;-61
2022/03/25 03:37:15;;;;;;;98.05;45.70;;;3.40;99.90;;;;;;5053599;28;20509;-63
2022/03/25 03:39:41;;;;;;;107.60;47.38;;;3.30;99.90;;;;;;5053804;28;20087;-61
2022/03/25 03:42:08;;;;;;;95.28;46.92;;;;;;;;;;5053783;28;20124;-62
2022/03/25 03:44:36;;;;;;;104.55;48.85;;;;;;;;;;5053725;28;20068;-61
2022/03/25 03:47:03;;;;;;;117.15;49.75;;;3.40;99.90;;;;;;5053148;28;20505;-62
2022/03/25 03:49:29;;;;;;;109.80;48.85;;;3.30;99.90;;;;;;5053608;28;20135;-61
2022/03/25 03:51:55;;;;;;;121.82;53.20;;;3.30;99.90;;;;;;5053675;28;20194;-62
2022/03/25 03:54:21;;;;;;;122.97;52.38;;;;;;;;;;5053513;28;20057;-62
2022/03/25 03:56:47;;;;;;;118.18;52.75;;;;;;;;;;5053434;28;20048;-61
2022/03/25 03:59:13;;;;;;;113.68;50.03;;;3.50;99.90;;;;;;5053391;28;20339;-61
2022/03/25 04:01:39;;;;;;;109.03;49.55;;;;;;;;;;5053169;28;20048;-61
2022/03/25 04:04:05;;;;;;;123.00;50.63;;;;;;;;;;5053394;28;20041;-62
2022/03/25 04:06:31;;;;;;;;;;;3.40;99.90;;;;;;5053674;28;20059;-62
2022/03/25 04:08:57;;;;;;;113.60;49.17;;;;;;;;;;5053247;28;19921;-62
2022/03/25 04:11:23;;;;;;;113.10;48.50;;;;;;;;;;5053229;28;20052;-62
2022/03/25 04:13:49;;;;;;;103.88;47.45;;;;;;;;;;5053093;28;20041;-61
2022/03/25 04:16:15;;;;;;;103.68;45.20;;;;;;;;;;5053093;28;20053;-62
2022/03/25 04:18:41;;;;;;;93.45;45.25;;;3.30;99.90;;;;;;5052991;28;20055;-62
2022/03/25 04:21:07;;;;;;;93.07;42.72;;;3.00;99.90;;;;;;5053046;28;20036;-61
2022/03/25 04:23:33;;;;;;;73.40;37.05;;;2.90;99.90;;;;;;5052947;28;20037;-61
2022/03/25 04:25:59;;;;;;;77.30;36.33;;;;;;;;;;5052870;28;20066;-61
2022/03/25 04:28:25;;;;;;;92.82;43.33;;;;;;;;;;5051649;28;20531;-61
2022/03/25 04:30:51;;;;;;;90.22;42.20;;;;;;;;;;5052832;28;20052;-63
2022/03/25 04:33:17;;;;;;;105.75;46.50;;;;;;;;;;5052789;28;20489;-62
2022/03/25 04:35:43;;;;;;;100.63;45.45;;;;;;;;;;5052782;28;20045;-61
2022/03/25 04:38:09;;;;;;;111.07;47.05;;;3.00;99.90;;;;;;5052695;28;20051;-61
2022/03/25 04:40:35;;;;;;;100.75;46.35;;;;;;;;;;5052737;28;20041;-62
2022/03/25 04:43:02;;;;;;;103.45;44.65;;;;;;;;;;5052682;28;20045;-62
2022/03/25 04:45:29;;;;;;;103.30;43.40;;;;;;;;;;5052630;28;20041;-61
2022/03/25 04:47:56;;;;;;;100.10;44.42;;;;;;;;;;5051218;28;20469;-61
2022/03/25 04:50:21;;;;;;;;;;;3.20;99.90;;;;;;5052938;28;20159;-62
2022/03/25 04:52:48;;;;;;;109.60;46.90;;;2.70;99.90;;;;;;5052501;28;19920;-61
2022/03/25 04:55:15;;;;;;;97.57;42.17;;;;;;;;;;5052613;28;20075;-61
2022/03/25 04:57:42;;;;;;;107.25;44.72;;;;;;;;;;5052140;28;20416;-61
2022/03/25 05:00:10;;;;;;;97.35;44.75;;;3.00;99.90;;;;;;5051225;28;20405;-62
2022/03/25 05:02:36;;;;;;;98.30;44.72;;;;;;;;;;5052445;28;20075;-61
2022/03/25 05:05:02;;;;;;;98.60;45.58;;;;;;;;;;5052432;28;20057;-62
2022/03/25 05:07:29;;;;;;;104.05;44.38;;;;;;;;;;5052338;28;20041;-61
2022/03/25 05:10:00;;;;;;;;;;;2.90;99.90;;;;;;5052750;28;20045;-61
2022/03/25 05:12:27;;;;;;;103.57;42.00;;;;;;;;;;5053715;28;19924;-62
2022/03/25 05:14:53;;;;;;;;;;;3.00;99.90;;;;;;5057005;28;20045;-61
2022/03/25 05:17:19;;;;;;;97.95;42.97;;;;;;;;;;5056497;28;19921;-62
2022/03/25 05:19:45;;;;;;;98.68;43.75;;;;;;;;;;5056360;28;20055;-61
2022/03/25 05:22:11;;;;;;;90.80;41.80;;;;;;;;;;5056065;28;20650;-61
2022/03/25 05:24:37;;;;;;;102.80;44.22;;;;;;;;;;5056340;28;20048;-62
2022/03/25 05:27:04;;;;;;;98.80;44.22;;;3.00;99.90;;;;;;5056260;28;20049;-61
2022/03/25 05:29:30;;;;;;;102.95;45.58;;;;;;;;;;5056221;28;20131;-61
2022/03/25 05:31:56;;;;;;;108.22;46.58;;;;;;;;;;5056148;28;20527;-61
2022/03/25 05:34:22;;;;;;;98.00;44.15;;;;;;;;;;5056141;28;20045;-62
2022/03/25 05:36:48;;;;;;;99.97;43.53;;;2.90;99.90;;;;;;5056144;28;20091;-62
2022/03/25 05:39:15;;;;;;;94.55;42.85;;;3.10;99.90;;;;;;5056061;28;20080;-61
2022/03/25 05:41:43;;;;;;;;;;;2.80;99.90;;;;;;5056420;28;20048;-61
2022/03/25 05:44:09;;;;;;;90.30;40.53;;;;;;;;;;5056031;28;19920;-61
2022/03/25 05:46:35;;;;;;;94.18;40.83;;;2.90;99.90;;;;;;5055970;28;20049;-62
2022/03/25 05:49:02;;;;;;;96.07;41.75;;;;;;;;;;5055952;28;20058;-61
2022/03/25 05:51:29;;;;;;;90.85;42.03;;;;;;;;;;5054661;28;20053;-61
2022/03/25 05:53:55;;;;;;;79.15;37.72;;;;;;;;;;5055741;28;20051;-62
2022/03/25 05:56:21;;;;;;;71.95;35.55;;;;;;;;;;5055794;28;20463;-61
2022/03/25 05:58:47;;;;;;;67.90;35.67;;;;;;;;;;5055706;28;20049;-63
2022/03/25 06:01:13;;;;;;;74.00;36.78;;;;;;;;;;5055662;28;20056;-61
2022/03/25 06:03:39;;;;;;;73.93;36.65;;;;;;;;;;5055679;28;20466;-61
2022/03/25 06:06:07;;;;;;;87.70;40.15;;;3.20;99.90;;;;;;5054556;28;20056;-61
2022/03/25 06:08:33;;;;;;;92.25;40.85;;;;;;;;;;5055514;28;20045;-62
2022/03/25 06:10:59;;;;;;;96.55;41.00;;;;;;;;;;5055462;28;20053;-61
2022/03/25 06:13:30;;;;;;;90.32;40.53;;;;;;;;;;5055396;28;20393;-61
2022/03/25 06:15:56;;;;;;;85.65;39.85;;;;;;;;;;5055159;28;20493;-61
2022/03/25 06:18:22;;;;;;;86.25;39.83;;;3.50;99.90;;;;;;5055331;28;20053;-61
2022/03/25 06:20:48;;;;;;;86.00;39.45;;;3.40;99.90;;;;;;5055037;28;20623;-62
2022/03/25 06:23:14;;;;;;;80.00;37.67;;;;;;;;;;5055219;28;20041;-61
2022/03/25 06:25:41;;;;;;;88.93;39.03;;;;;;;;;;5055174;28;20102;-61
2022/03/25 06:28:07;;;;;;;86.63;40.22;;;;;;;;;;5055129;28;20092;-62
2022/03/25 06:30:37;;;;;;;78.15;37.90;;;3.60;99.90;;;;;;5055273;28;20392;-62
2022/03/25 06:33:05;;;;;;;83.35;38.38;;;4.00;99.90;;;;;;5055114;28;20037;-61
2022/03/25 06:35:31;;;;;;;81.03;36.97;;;4.20;99.90;;;;;;5055094;28;20053;-61
2022/03/25 06:37:57;;;;;;;78.78;37.35;;;;;;;;;;5055040;28;20040;-61
2022/03/25 06:40:24;;;;;;;75.30;37.42;;;4.40;99.90;;;;;;5054982;28;20147;-63
2022/03/25 06:42:53;;;;;;;80.82;36.63;;;;;;;;;;5054931;28;20076;-62
2022/03/25 06:45:19;;;;;;;75.15;37.90;;;4.50;99.90;;;;;;5053740;28;20053;-61
2022/03/25 06:47:46;;;;;;;74.22;37.53;;;4.60;99.90;;;;;;5054824;28;20049;-62
2022/03/25 06:50:15;;;;;;;71.93;37.00;;;;;;;;;;5054788;28;20149;-61
2022/03/25 06:52:42;;;;;;;73.97;37.60;;;5.00;99.90;;;;;;5054672;28;20392;-61
2022/03/25 06:55:09;;;;;;;80.68;38.40;;;5.10;99.90;;;;;;5054752;28;20075;-62
2022/03/25 06:57:34;;;;;;;;;;;;;;;;;;5055267;28;20052;-62
2022/03/25 07:00:00;;;;;;;80.32;38.03;;;5.50;99.90;;;;;;5054598;28;19924;-62
2022/03/25 07:02:26;;;;;;;76.18;37.28;;;5.80;99.90;;;;;;5054874;28;20428;-61
2022/03/25 07:04:53;;;;;;;69.47;38.88;;;;;;;;;;5054569;28;20049;-62
2022/03/25 07:07:26;;;;;;;77.78;41.10;;;;;;;;;;5054590;28;20052;-61
2022/03/25 07:09:53;;;;;;;88.60;42.30;;;6.10;99.90;;;;;;5054462;28;20500;-64
2022/03/25 07:12:18;;;;;;;82.15;42.45;;;6.20;99.90;;;;;;5054332;28;20063;-62
2022/03/25 07:14:44;;;;;;;79.63;41.88;;;6.30;99.90;;;;;;5054298;28;20128;-61
2022/03/25 07:17:10;;;;;;;86.32;43.85;;;6.50;99.90;;;;;;5054274;28;20095;-62
2022/03/25 07:19:36;;;;;;;78.43;42.38;;;6.60;99.90;;;;;;5054267;28;20107;-62
2022/03/25 07:22:01;;;;;;;80.65;43.45;;;6.80;99.90;;;;;;5054238;28;20045;-62
2022/03/25 07:24:27;;;;;;;84.40;45.97;;;7.00;99.90;;;;;;5054191;28;20136;-62
2022/03/25 07:26:53;;;;;;;77.63;43.08;;;7.10;99.90;;;;;;5054122;28;20053;-61
2022/03/25 07:29:18;;;;;;;80.60;44.30;;;7.20;99.90;;;;;;5053822;28;20053;-62
2022/03/25 07:31:44;;;;;;;75.22;42.08;;;7.40;99.90;;;;;;5054096;28;20140;-62
2022/03/25 07:34:10;;;;;;;70.50;39.38;;;7.20;99.90;;;;;;5053828;28;20045;-61
2022/03/25 07:36:35;;;;;;;72.93;40.03;;;7.30;99.90;;;;;;5053471;28;20060;-62
2022/03/25 07:39:02;;;;;;;64.90;37.45;;;7.30;99.90;;;;;;5053931;28;20538;-62
2022/03/25 07:41:29;;;;;;;67.35;36.88;;;7.40;99.90;;;;;;5053823;28;20049;-62
2022/03/25 07:43:54;;;;;;;;;;;7.70;99.90;;;;;;5054247;28;20396;-61
2022/03/25 07:46:20;;;;;;;62.95;35.67;;;7.80;99.90;;;;;;5052447;28;19925;-61
2022/03/25 07:48:46;;;;;;;64.80;37.53;;;7.70;99.90;;;;;;5053771;28;20135;-62
2022/03/25 07:51:12;;;;;;;61.95;38.10;;;7.40;99.90;;;;;;5053621;28;20138;-61
2022/03/25 07:53:37;;;;;;;67.15;37.65;;;7.60;99.90;;;;;;5053602;28;20226;-62
2022/03/25 07:56:03;;;;;;;69.47;37.33;;;7.80;99.90;;;;;;5053288;28;20060;-63
2022/03/25 07:58:29;;;;;;;66.25;37.85;;;7.90;99.90;;;;;;5053479;28;20436;-62
2022/03/25 08:00:55;;;;;;;68.32;40.05;;;7.70;99.90;;;;;;5053509;28;20128;-61
2022/03/25 08:03:21;;;;;;;71.13;39.72;;;7.90;99.90;;;;;;5053432;28;20048;-62
2022/03/25 08:05:48;;;;;;;;;;;8.20;99.90;;;;;;5053790;28;20106;-61
2022/03/25 08:08:16;;;;;;;59.67;32.85;;;8.20;99.90;;;;;;5053337;28;19928;-62
2022/03/25 08:10:42;;;;;;;57.28;33.90;;;8.00;99.90;;;;;;5052189;28;20045;-62
2022/03/25 08:13:09;;;;;;;57.58;32.55;;;8.70;99.90;;;;;;5053155;28;20041;-62
2022/03/25 08:15:35;;;;;;;55.42;31.25;;;8.70;99.90;;;;;;5053210;28;20048;-62
2022/03/25 08:18:06;;;;;;;55.45;32.15;;;8.70;99.90;;;;;;5053206;28;20513;-64
2022/03/25 08:20:40;;;;;;;55.00;30.83;;;8.70;99.90;;;;;;5053169;28;20132;-62
2022/03/25 08:23:14;;;;;;;50.67;27.77;;;8.90;99.90;;;;;;5053089;28;20358;-62
2022/03/25 08:28:25;;;;;;;50.20;27.00;;;8.80;99.90;;;;;;5053155;28;20060;-62
2022/03/25 08:30:51;;;;;;;49.38;27.45;;;8.90;99.90;;;;;;5052915;28;20111;-62
2022/03/25 08:33:17;;;;;;;46.83;24.52;;;9.10;99.90;;;;;;5052597;28;20481;-62
2022/03/25 08:35:44;;;;;;;48.20;27.35;;;9.30;99.90;;;;;;5052908;28;20041;-62
2022/03/25 08:38:11;;;;;;;42.83;25.58;;;9.80;99.90;;;;;;5052821;28;20048;-62
2022/03/25 08:40:38;;;;;;;42.13;25.60;;;9.40;99.90;;;;;;5051752;28;20390;-62
2022/03/25 08:43:05;;;;;;;47.05;27.35;;;9.40;99.90;;;;;;5052884;28;20052;-67
2022/03/25 08:45:32;;;;;;;45.00;26.13;;;9.60;99.90;;;;;;5052795;28;20049;-62
2022/03/25 08:47:58;;;;;;;43.35;25.92;;;9.70;99.90;;;;;;5051742;28;20084;-62
2022/03/25 08:50:24;;;;;;;49.22;26.38;;;9.70;99.90;;;;;;5052678;28;20079;-62
2022/03/25 08:52:51;;;;;;;39.67;23.20;;;9.70;99.90;;;;;;5052582;28;20489;-62
2022/03/25 08:55:18;;;;;;;39.33;23.67;;;10.70;99.90;;;;;;5052622;28;20142;-62
2022/03/25 08:57:45;;;;;;;44.08;23.83;;;9.90;99.90;;;;;;5051288;28;20093;-63
2022/03/25 09:00:14;;;;;;;42.78;23.77;;;10.70;99.90;;;;;;5051421;28;20045;-62
2022/03/25 09:02:42;;;;;;;39.33;23.63;;;10.40;99.90;;;;;;5052146;28;20649;-63
2022/03/25 09:05:08;;;;;;;41.95;24.08;;;10.00;99.90;;;;;;5052248;28;20049;-62
2022/03/25 09:07:34;;;;;;;43.80;23.92;;;10.30;99.90;;;;;;5052393;28;20044;-62
2022/03/25 09:10:00;;;;;;;;;;;10.40;99.90;;;;;;5039128;28;20057;-62
2022/03/25 09:12:26;;;;;;;41.63;23.35;;;10.40;99.90;;;;;;5050106;28;20234;-62
2022/03/25 09:14:52;;;;;;;41.88;22.65;;;10.70;99.90;;;;;;5049146;28;20056;-62
2022/03/25 09:17:17;;;;;;;39.78;22.23;;;10.60;99.90;;;;;;5049415;28;20601;-62
2022/03/25 09:19:43;;;;;;;41.75;22.40;;;11.10;99.90;;;;;;5048164;28;20460;-62
2022/03/25 09:22:10;;;;;;;40.40;21.85;;;10.90;99.90;;;;;;5048838;28;20058;-62
2022/03/25 09:24:36;;;;;;;39.17;19.75;;;11.00;99.90;;;;;;5047954;28;20124;-62
2022/03/25 09:27:02;;;;;;;34.35;19.00;;;11.40;99.90;;;;;;5048529;28;20049;-62
2022/03/25 09:29:28;;;;;;;31.60;18.77;;;11.40;99.90;;;;;;5049625;28;20408;-62
2022/03/25 09:31:54;;;;;;;34.88;20.40;;;11.90;99.90;;;;;;5049508;28;20037;-62
2022/03/25 09:37:05;;;;;;;35.00;19.55;;;11.20;99.90;;;;;;5051050;28;20049;-63
2022/03/25 09:39:30;;;;;;;36.03;20.55;;;11.20;99.90;;;;;;5050459;28;20398;-62
2022/03/25 09:41:58;;;;;;;43.33;18.83;;;11.20;99.90;;;;;;5050894;28;20051;-62
2022/03/25 09:44:24;;;;;;;37.13;19.63;;;11.20;99.90;;;;;;5049117;28;20045;-62
2022/03/25 09:46:50;;;;;;;35.45;18.83;;;11.20;99.90;;;;;;5050176;28;20114;-64
2022/03/25 09:49:18;;;;;;;39.72;20.35;;;11.40;99.90;;;;;;5050690;28;20060;-62
2022/03/25 09:51:44;;;;;;;36.92;20.10;;;12.40;99.90;;;;;;5049909;28;20139;-62
2022/03/25 09:54:13;;;;;;;37.45;19.50;;;11.60;99.90;;;;;;5046149;28;20049;-63
2022/03/25 09:56:40;;;;;;;36.50;18.70;;;12.80;99.90;;;;;;5050737;28;20045;-62
2022/03/25 09:59:06;;;;;;;31.50;18.40;;;11.80;99.90;;;;;;5053259;28;20068;-62
2022/03/25 10:01:32;;;;;;;35.53;18.42;;;11.70;99.90;;;;;;5049154;28;20044;-62
2022/03/25 10:03:58;;;;;;;38.78;19.85;;;11.80;99.90;;;;;;5053125;28;20366;-62
2022/03/25 10:06:24;;;;;;;37.85;19.15;;;12.00;99.90;;;;;;5054368;28;20044;-62
2022/03/25 10:09:02;;;;;;;37.85;19.70;;;12.00;99.90;;;;;;5053774;28;20057;-62
2022/03/25 10:11:30;;;;;;;34.28;18.63;;;12.30;99.90;;;;;;5054500;28;20049;-61
2022/03/25 10:14:19;;;;;;;33.55;17.80;;;12.30;99.90;;;;;;5048284;28;20052;-62
2022/03/25 10:16:49;;;;;;;31.00;15.88;;;12.60;99.90;;;;;;5049467;28;20515;-66
2022/03/25 10:19:23;;;;;;;32.03;17.55;;;12.50;99.90;;;;;;5050915;28;20048;-62
2022/03/25 10:21:53;;;;;;;33.00;18.58;;;12.30;99.90;;;;;;5050726;28;20519;-62
2022/03/25 10:24:48;;;;;;;36.85;19.92;;;12.60;99.90;;;;;;5052237;28;20037;-62
2022/03/25 10:27:23;;;;;;;33.58;19.63;;;12.30;99.90;;;;;;5047960;28;20128;-61
2022/03/25 10:29:50;;;;;;;38.30;21.02;;;12.20;99.80;;;;;;5054087;28;20507;-62
2022/03/25 10:32:26;;;;;;;32.25;19.50;;;12.20;99.90;;;;;;5053512;28;20127;-62
2022/03/25 10:35:08;;;;;;;40.03;21.88;;;12.50;99.90;;;;;;5052662;28;20041;-61
2022/03/25 10:37:35;;;;;;;37.05;19.83;;;12.60;99.90;;;;;;5053347;28;20045;-61
2022/03/25 10:40:05;;;;;;;36.67;19.90;;;12.80;99.90;;;;;;5053742;28;20053;-62
2022/03/25 10:42:33;;;;;;;32.92;19.40;;;12.40;99.90;;;;;;5050396;28;20102;-62
2022/03/25 10:44:59;;;;;;;35.30;19.83;;;12.60;99.90;;;;;;5052313;28;20057;-61
2022/03/25 10:47:26;;;;;;;30.70;19.17;;;12.70;99.90;;;;;;5053354;28;20063;-62
2022/03/25 10:49:53;;;;;;;33.30;19.55;;;12.70;99.90;;;;;;5053585;28;20049;-62
2022/03/25 10:52:30;;;;;;;33.00;19.83;;;12.60;99.90;;;;;;5052694;28;20045;-61
2022/03/25 10:55:15;;;;;;;41.28;23.70;;;12.80;99.60;;;;;;5052206;28;20048;-62
2022/03/25 10:58:07;;;;;;;37.50;22.35;;;12.60;99.90;;;;;;5043922;28;20053;-62
2022/03/25 11:00:34;;;;;;;34.35;21.33;;;13.00;99.90;;;;;;5031889;28;20057;-61
2022/03/25 11:02:59;;;;;;;31.48;18.58;;;12.70;99.90;;;;;;5034645;28;20473;-61
2022/03/25 11:05:25;;;;;;;35.65;19.45;;;13.50;98.90;;;;;;5033308;28;20056;-61
2022/03/25 11:07:52;;;;;;;39.10;20.48;;;12.30;99.10;;;;;;5034549;28;20123;-62
2022/03/25 11:10:18;;;;;;;34.25;20.10;;;12.80;99.90;;;;;;5033650;28;20041;-61
2022/03/25 11:12:53;;;;;;;27.85;16.45;;;12.80;99.90;;;;;;5034386;28;20048;-62
2022/03/25 11:15:21;;;;;;;32.33;16.88;;;12.80;95.50;;;;;;5034481;28;20045;-62
2022/03/25 11:17:47;;;;;;;27.10;14.82;;;13.50;98.20;;;;;;5034407;28;20052;-62
2022/03/25 11:20:16;;;;;;;39.88;22.45;;;13.30;94.60;;;;;;5034384;28;20132;-62
2022/03/25 11:23:00;;;;;;;45.83;22.10;;;13.00;95.60;;;;;;5034283;28;20041;-62
2022/03/25 11:25:28;;;;;;;39.65;22.30;;;12.50;95.40;;;;;;5034168;28;20489;-62
2022/03/25 11:28:05;;;;;;;43.15;25.80;;;13.10;99.70;;;;;;5033213;28;20087;-61
2022/03/25 11:30:33;;;;;;;44.92;25.05;;;13.20;99.90;;;;;;5016992;28;20053;-62
2022/03/25 11:33:04;;;;;;;47.70;24.30;;;13.30;99.20;;;;;;5034199;28;20045;-62
2022/03/25 11:35:36;;;;;;;53.83;27.60;;;13.00;98.20;;;;;;5034317;28;20091;-62
2022/03/25 11:38:10;;;;;;;56.42;29.33;;;12.90;99.50;;;;;;5034203;28;20057;-63
2022/03/25 11:40:45;;;;;;;50.42;27.92;;;14.40;99.90;;;;;;5034014;28;20057;-63
2022/03/25 11:43:15;;;;;;;54.80;28.33;;;12.70;98.10;;;;;;5034263;28;20049;-62
2022/03/25 11:45:46;;;;;;;48.33;27.13;;;12.60;99.90;;;;;;5033951;28;20054;-61
2022/03/25 11:48:11;;;;;;;48.20;25.98;;;13.10;99.00;;;;;;5033852;28;20064;-62
2022/03/25 11:50:39;;;;;;;44.50;24.05;;;13.00;95.30;;;;;;5033906;28;20136;-62
2022/03/25 11:53:29;;;;;;;42.78;24.50;;;12.70;94.80;;;;;;5033728;28;20470;-61
2022/03/25 11:56:05;;;;;;;49.42;28.25;;;13.00;94.10;;;;;;5032891;28;20056;-62
2022/03/25 11:58:32;;;;;;;54.78;29.27;;;13.10;95.80;;;;;;5032773;28;20136;-61
2022/03/25 12:01:05;;;;;;;53.75;31.75;;;14.30;94.60;;;;;;5033737;28;20041;-62
2022/03/25 12:03:42;;;;;;;58.17;32.47;;;13.10;97.70;;;;;;5033761;28;20144;-61
2022/03/25 12:06:09;;;;;;;46.72;26.40;;;13.10;98.50;;;;;;5033589;28;20092;-62
2022/03/25 12:08:35;;;;;;;57.42;31.15;;;12.90;97.50;;;;;;5033470;28;20045;-62
2022/03/25 12:11:02;;;;;;;;;;;13.20;97.20;;;;;;5032873;28;20055;-61
2022/03/25 12:13:53;;;;;;;50.58;28.77;;;13.10;93.50;;;;;;5039497;28;19920;-62
2022/03/25 12:16:47;;;;;;;45.63;25.02;;;13.60;95.70;;;;;;5053124;28;20053;-61
2022/03/25 12:19:38;;;;;;;35.53;19.70;;;13.70;92.30;;;;;;5053042;28;20050;-62
2022/03/25 12:22:19;;;;;;;34.15;18.85;;;13.60;81.50;;;;;;5051927;28;20143;-61
2022/03/25 12:24:47;;;;;;;47.10;24.38;;;13.20;83.30;;;;;;5052905;28;20484;-62
2022/03/25 12:27:13;;;;;;;39.97;22.35;;;13.20;85.30;;;;;;5053179;28;20049;-62
2022/03/25 12:29:43;;;;;;;38.42;20.15;;;13.40;86.40;;;;;;5052778;28;20051;-62
2022/03/25 12:32:14;;;;;;;30.92;16.75;;;13.60;85.30;;;;;;5053081;28;20127;-61
2022/03/25 12:34:40;;;;;;;34.25;19.15;;;13.20;78.10;;;;;;5052879;28;20183;-62
2022/03/25 12:37:11;;;;;;;39.35;23.17;;;13.30;77.80;;;;;;5052928;28;20130;-62
2022/03/25 12:39:37;;;;;;;37.15;22.30;;;13.20;81.00;;;;;;5052940;28;20051;-62
2022/03/25 12:42:13;;;;;;;48.70;26.33;;;13.50;84.10;;;;;;5052941;28;20055;-62
2022/03/25 12:44:39;;;;;;;42.97;24.48;;;13.80;83.10;;;;;;5052605;28;20488;-62
2022/03/25 12:47:06;;;;;;;38.17;22.45;;;13.60;84.00;;;;;;5052553;28;20071;-62
2022/03/25 12:49:33;;;;;;;41.60;23.75;;;13.90;83.40;;;;;;5052510;28;20053;-61
2022/03/25 12:52:04;;;;;;;36.25;19.17;;;13.60;85.50;;;;;;5052656;28;20102;-62
2022/03/25 12:54:31;;;;;;;31.88;19.73;;;13.90;82.20;;;;;;5052686;28;20044;-62
2022/03/25 12:56:59;;;;;;;31.55;17.58;;;14.10;82.90;;;;;;5052653;28;20056;-62
2022/03/25 12:59:29;;;;;;;37.35;19.58;;;13.90;77.30;;;;;;5052678;28;20041;-61
2022/03/25 13:01:55;;;;;;;37.72;21.25;;;14.10;78.80;;;;;;5052575;28;20139;-61
2022/03/25 13:04:30;;;;;;;;;;;14.10;80.90;;;;;;5053021;28;20132;-62
2022/03/25 13:07:08;;;;;;;26.50;14.20;;;14.30;72.30;;;;;;5051221;28;19925;-61
2022/03/25 13:09:34;;;;;;;30.65;17.17;;;14.00;73.30;;;;;;5052634;28;20048;-62
2022/03/25 13:12:02;;;;;;;30.58;15.48;;;14.30;74.90;;;;;;5052528;28;20041;-61
2022/03/25 13:14:29;;;;;;;35.72;15.73;;;14.10;71.80;;;;;;5051177;28;20565;-62